Time;durP1;ratioP1;P1;durP2;ratioP2;P2;SDS_P1;SDS_P2;PMS_P1;PMS_P2;Temp;Humidity;BMP_temperature;BMP_pressure;BME280_temperature;BME280_humidity;BME280_pressure;Samples;Min_cycle;Max_cycle;Signal;HPM_P1;HPM_P2
2022/05/18 00:00:54;;;;;;;8.53;4.93;;;13.30;65.50;;;;;;5052145;28;47191;-61
2022/05/18 00:03:24;;;;;;;9.23;5.80;;;13.20;65.80;;;;;;5050215;28;46496;-61
2022/05/18 00:05:49;;;;;;;14.60;5.70;;;13.10;65.70;;;;;;5047135;28;46410;-60
2022/05/18 00:08:15;;;;;;;12.33;5.90;;;13.10;65.80;;;;;;5052815;28;46421;-62
2022/05/18 00:10:43;;;;;;;10.30;6.03;;;13.10;65.90;;;;;;5045501;28;47256;-61
2022/05/18 00:13:09;;;;;;;14.03;5.60;;;13.00;65.90;;;;;;5050794;28;46573;-61
2022/05/18 00:15:36;;;;;;;9.93;5.60;;;13.00;65.90;;;;;;5055178;28;46470;-61
2022/05/18 00:18:02;;;;;;;11.80;5.60;;;13.00;66.00;;;;;;5059596;28;46370;-62
2022/05/18 00:20:28;;;;;;;10.23;5.73;;;12.90;66.10;;;;;;5050475;28;47551;-60
2022/05/18 00:22:56;;;;;;;10.60;5.00;;;12.80;66.30;;;;;;5057998;28;45905;-61
2022/05/18 00:25:24;;;;;;;19.57;5.30;;;12.80;66.60;;;;;;5052964;28;46457;-62
2022/05/18 00:27:50;;;;;;;9.20;6.00;;;12.70;66.70;;;;;;5051287;28;46013;-61
2022/05/18 00:30:18;;;;;;;11.10;6.20;;;12.70;66.90;;;;;;5054086;28;45935;-62
2022/05/18 00:32:44;;;;;;;9.13;6.30;;;12.70;66.80;;;;;;5050612;28;46537;-63
2022/05/18 00:35:11;;;;;;;9.43;5.43;;;12.70;66.40;;;;;;5053392;28;46641;-61
2022/05/18 00:37:37;;;;;;;12.00;5.90;;;12.70;66.50;;;;;;5050476;28;46734;-62
2022/05/18 00:40:04;;;;;;;6.63;5.40;;;12.70;66.30;;;;;;5052744;28;47143;-62
2022/05/18 00:42:30;;;;;;;9.37;5.87;;;12.70;66.30;;;;;;5049767;28;46417;-61
2022/05/18 00:44:56;;;;;;;8.33;6.00;;;12.70;66.10;;;;;;5049731;28;46381;-62
2022/05/18 00:47:22;;;;;;;8.93;5.73;;;12.70;66.00;;;;;;5050954;28;46283;-62
2022/05/18 00:49:53;;;;;;;13.80;5.80;;;12.80;66.10;;;;;;5051147;28;46556;-62
2022/05/18 00:52:23;;;;;;;7.43;5.57;;;12.80;66.20;;;;;;5048964;28;46318;-62
2022/05/18 00:54:50;;;;;;;8.57;5.60;;;12.80;66.00;;;;;;5052258;28;46418;-62
2022/05/18 00:57:24;;;;;;;9.73;5.90;;;12.70;66.10;;;;;;5047388;28;46623;-62
2022/05/18 00:59:54;;;;;;;9.33;5.50;;;12.70;66.20;;;;;;5047872;28;47454;-63
2022/05/18 01:02:23;;;;;;;9.30;5.50;;;12.60;66.40;;;;;;5047643;28;46272;-62
2022/05/18 01:04:52;;;;;;;8.60;6.30;;;12.60;66.90;;;;;;5048520;28;46411;-61
2022/05/18 01:07:27;;;;;;;11.90;6.33;;;12.60;66.80;;;;;;5052589;28;45880;-62
2022/05/18 01:09:52;;;;;;;10.07;5.10;;;12.50;66.80;;;;;;5045075;28;47107;-62
2022/05/18 01:12:22;;;;;;;9.73;5.50;;;12.60;66.80;;;;;;5049701;28;46310;-61
2022/05/18 01:14:52;;;;;;;12.90;5.70;;;12.60;66.50;;;;;;5046937;28;46427;-62
2022/05/18 01:17:23;;;;;;;10.70;5.63;;;12.50;66.30;;;;;;5052530;28;46453;-62
2022/05/18 01:19:52;;;;;;;11.27;4.70;;;12.40;66.60;;;;;;5048137;28;47161;-62
2022/05/18 01:22:51;;;;;;;15.63;5.23;;;12.40;66.70;;;;;;5045241;28;46421;-62
2022/05/18 01:25:39;;;;;;;7.30;4.53;;;12.30;66.50;;;;;;5048413;28;46844;-62
2022/05/18 01:28:05;;;;;;;9.00;4.70;;;12.30;66.50;;;;;;5040574;28;45948;-62
2022/05/18 01:30:32;;;;;;;9.43;4.80;;;12.30;66.50;;;;;;5047418;28;46548;-62
2022/05/18 01:33:00;;;;;;;8.63;5.07;;;12.30;66.60;;;;;;5045446;28;46371;-62
2022/05/18 01:35:31;;;;;;;12.70;5.47;;;12.30;66.50;;;;;;5052151;28;46521;-61
2022/05/18 01:37:57;;;;;;;7.30;5.30;;;12.20;66.40;;;;;;5048014;28;46368;-60
2022/05/18 01:40:26;;;;;;;10.20;5.50;;;12.30;66.50;;;;;;5049025;28;46301;-61
2022/05/18 01:43:01;;;;;;;7.20;4.93;;;12.30;66.50;;;;;;5050065;28;46438;-62
2022/05/18 01:45:27;;;;;;;9.90;5.70;;;12.20;66.40;;;;;;5050407;28;46438;-62
2022/05/18 01:47:53;;;;;;;12.07;5.43;;;12.20;66.40;;;;;;5055578;28;45922;-62
2022/05/18 01:50:27;;;;;;;11.73;4.80;;;12.10;66.40;;;;;;5046471;28;46558;-62
2022/05/18 01:52:52;;;;;;;18.13;5.37;;;12.00;66.30;;;;;;5052042;28;45926;-61
2022/05/18 01:55:19;;;;;;;11.27;5.67;;;11.90;66.20;;;;;;5049335;28;46271;-61
2022/05/18 01:57:44;;;;;;;10.37;5.13;;;11.90;66.80;;;;;;5052575;28;46440;-63
2022/05/18 02:00:11;;;;;;;9.93;5.60;;;11.80;67.00;;;;;;5050464;28;48231;-63
2022/05/18 02:02:37;;;;;;;15.57;5.67;;;11.80;67.20;;;;;;5047399;28;46514;-62
2022/05/18 02:05:03;;;;;;;11.03;5.87;;;11.80;67.20;;;;;;5050846;28;46468;-62
2022/05/18 02:07:29;;;;;;;17.33;5.80;;;11.80;67.10;;;;;;5046510;28;46527;-61
2022/05/18 02:09:54;;;;;;;9.10;5.90;;;11.80;67.00;;;;;;5047520;28;46295;-61
2022/05/18 02:12:20;;;;;;;13.47;5.67;;;11.80;66.90;;;;;;5048888;28;46424;-63
2022/05/18 02:14:45;;;;;;;7.57;5.30;;;11.80;66.90;;;;;;5048718;28;46442;-63
2022/05/18 02:17:11;;;;;;;8.10;5.60;;;11.80;66.70;;;;;;5049045;28;46369;-62
2022/05/18 02:19:37;;;;;;;12.00;5.90;;;11.80;66.60;;;;;;5047880;28;47359;-62
2022/05/18 02:22:02;;;;;;;14.53;6.33;;;11.90;66.40;;;;;;5048674;28;46571;-62
2022/05/18 02:24:30;;;;;;;10.27;6.57;;;11.90;66.30;;;;;;5049555;28;46385;-61
2022/05/18 02:26:55;;;;;;;11.97;7.07;;;11.90;66.40;;;;;;5050533;28;46288;-62
2022/05/18 02:29:21;;;;;;;10.17;7.10;;;11.90;66.20;;;;;;5045264;28;46529;-62
2022/05/18 02:31:46;;;;;;;14.00;8.00;;;11.90;66.20;;;;;;5046822;28;46593;-62
2022/05/18 02:34:12;;;;;;;11.30;6.90;;;11.90;66.20;;;;;;5048080;28;46344;-62
2022/05/18 02:36:38;;;;;;;13.83;8.03;;;11.90;66.40;;;;;;5046932;28;45990;-63
2022/05/18 02:39:03;;;;;;;10.40;7.10;;;11.90;66.70;;;;;;5048247;28;46223;-62
2022/05/18 02:41:29;;;;;;;11.53;7.37;;;11.90;66.80;;;;;;5045363;28;46442;-62
2022/05/18 02:43:55;;;;;;;12.93;6.80;;;11.90;66.90;;;;;;5047545;28;46421;-61
2022/05/18 02:46:21;;;;;;;15.50;7.80;;;11.90;66.80;;;;;;5050697;28;46518;-61
2022/05/18 02:48:48;;;;;;;9.27;5.90;;;11.90;67.00;;;;;;5050758;28;46642;-61
2022/05/18 02:51:15;;;;;;;11.20;6.30;;;11.90;67.00;;;;;;5056553;28;46346;-62
2022/05/18 02:53:42;;;;;;;16.00;6.77;;;11.90;67.00;;;;;;5051454;28;46433;-62
2022/05/18 02:56:11;;;;;;;13.80;7.33;;;11.80;67.10;;;;;;5050264;28;45891;-61
2022/05/18 02:58:50;;;;;;;10.07;6.77;;;11.70;67.30;;;;;;5053103;28;47042;-63
2022/05/18 03:01:20;;;;;;;11.93;5.67;;;11.70;67.60;;;;;;5054493;28;46485;-62
2022/05/18 03:03:45;;;;;;;10.67;5.67;;;11.60;67.80;;;;;;5055407;28;46458;-61
2022/05/18 03:06:16;;;;;;;12.80;6.17;;;11.60;68.20;;;;;;5051920;28;46569;-61
2022/05/18 03:08:43;;;;;;;8.73;5.80;;;11.50;68.40;;;;;;5054203;28;46867;-62
2022/05/18 03:11:09;;;;;;;10.13;5.90;;;11.50;68.40;;;;;;5053078;28;46391;-62
2022/05/18 03:13:35;;;;;;;10.43;7.20;;;11.50;68.60;;;;;;5050476;28;46377;-61
2022/05/18 03:16:01;;;;;;;10.77;7.20;;;11.50;68.50;;;;;;5052963;28;46380;-61
2022/05/18 03:18:27;;;;;;;13.00;6.87;;;11.50;68.60;;;;;;5051362;28;46127;-61
2022/05/18 03:23:38;;;;;;;9.70;6.50;;;11.50;68.50;;;;;;5053217;28;46430;-62
2022/05/18 03:26:19;;;;;;;12.57;6.70;;;11.50;68.30;;;;;;5051647;28;46365;-61
2022/05/18 03:28:47;;;;;;;7.60;5.57;;;11.50;68.50;;;;;;5053524;28;46306;-62
2022/05/18 03:31:13;;;;;;;10.13;6.20;;;11.50;68.30;;;;;;5048759;28;46637;-61
2022/05/18 03:33:39;;;;;;;15.70;6.10;;;11.50;68.20;;;;;;5050840;28;46412;-61
2022/05/18 03:36:08;;;;;;;9.73;6.33;;;11.60;68.20;;;;;;5051507;28;46455;-61
2022/05/18 03:38:34;;;;;;;9.70;5.83;;;11.60;68.20;;;;;;5046729;28;46452;-61
2022/05/18 03:40:59;;;;;;;8.57;5.37;;;11.60;69.20;;;;;;5054408;28;46405;-62
2022/05/18 03:43:25;;;;;;;9.10;6.17;;;11.60;68.20;;;;;;5049568;28;46330;-61
2022/05/18 03:45:51;;;;;;;9.67;5.97;;;11.60;68.20;;;;;;5052958;28;46267;-62
2022/05/18 03:48:17;;;;;;;9.07;5.80;;;11.60;68.40;;;;;;5050662;28;46349;-62
2022/05/18 03:50:47;;;;;;;11.13;5.57;;;11.60;68.50;;;;;;5048608;28;46407;-63
2022/05/18 03:53:14;;;;;;;12.67;5.10;;;11.60;68.40;;;;;;5055295;28;46386;-62
2022/05/18 03:55:41;;;;;;;11.90;5.93;;;11.60;68.30;;;;;;5061014;28;46425;-60
2022/05/18 03:58:09;;;;;;;10.73;5.30;;;11.60;68.10;;;;;;5051996;28;46456;-62
2022/05/18 04:00:35;;;;;;;12.13;4.53;;;11.70;68.00;;;;;;5048649;28;46361;-61
2022/05/18 04:03:02;;;;;;;18.53;5.50;;;11.70;67.90;;;;;;5054022;28;45814;-61
2022/05/18 04:05:27;;;;;;;14.47;5.43;;;11.70;67.90;;;;;;5051691;28;46531;-62
2022/05/18 04:07:53;;;;;;;10.23;4.70;;;11.80;67.70;;;;;;5050490;28;46388;-62
2022/05/18 04:10:19;;;;;;;10.77;5.80;;;11.80;67.60;;;;;;5051146;28;46384;-62
2022/05/18 04:12:45;;;;;;;9.20;5.30;;;11.90;67.60;;;;;;5046994;28;46527;-62
2022/05/18 04:15:16;;;;;;;8.70;5.47;;;11.90;67.40;;;;;;5057687;28;46489;-62
2022/05/18 04:17:42;;;;;;;9.50;5.53;;;12.00;67.30;;;;;;5049271;28;46456;-61
2022/05/18 04:20:08;;;;;;;7.70;5.53;;;12.10;67.00;;;;;;5053239;28;46335;-61
2022/05/18 04:22:35;;;;;;;17.83;6.60;;;12.20;66.50;;;;;;5053976;28;45870;-62
2022/05/18 04:25:01;;;;;;;8.47;5.53;;;12.30;66.50;;;;;;5046813;28;46381;-63
2022/05/18 04:27:31;;;;;;;8.80;5.50;;;12.50;66.70;;;;;;5055137;28;46570;-63
2022/05/18 04:29:57;;;;;;;6.70;5.60;;;12.60;66.40;;;;;;5048114;28;45881;-62
2022/05/18 04:32:23;;;;;;;7.73;4.70;;;12.70;66.10;;;;;;5055491;28;46429;-61
2022/05/18 04:34:49;;;;;;;8.43;5.47;;;12.80;65.90;;;;;;5051950;28;46426;-63
2022/05/18 04:37:16;;;;;;;13.87;5.40;;;12.80;66.20;;;;;;5051762;28;46317;-61
2022/05/18 04:39:41;;;;;;;8.00;5.67;;;12.80;66.20;;;;;;5053278;28;46456;-62
2022/05/18 04:42:07;;;;;;;9.10;5.63;;;12.90;66.30;;;;;;5052011;28;46801;-61
2022/05/18 04:44:33;;;;;;;7.53;6.07;;;13.10;66.00;;;;;;5054381;28;46485;-62
2022/05/18 04:46:58;;;;;;;10.50;5.40;;;13.20;65.50;;;;;;5050978;28;46467;-62
2022/05/18 04:49:26;;;;;;;10.77;5.40;;;13.40;65.10;;;;;;5049745;28;46353;-63
2022/05/18 04:51:52;;;;;;;6.53;4.20;;;13.70;64.70;;;;;;5051933;28;46366;-61
2022/05/18 04:54:17;;;;;;;5.77;4.30;;;14.70;64.90;;;;;;5053546;28;45824;-62
2022/05/18 04:56:43;;;;;;;5.63;3.90;;;16.30;63.50;;;;;;5048632;28;46314;-62
2022/05/18 04:59:09;;;;;;;6.63;4.17;;;17.80;59.30;;;;;;5049516;28;46407;-59
2022/05/18 05:01:35;;;;;;;5.90;4.10;;;19.20;55.70;;;;;;5048746;28;46437;-62
2022/05/18 05:04:01;;;;;;;7.33;3.87;;;20.40;52.70;;;;;;5049197;28;46425;-61
2022/05/18 05:06:27;;;;;;;8.47;5.20;;;21.40;49.70;;;;;;5048950;28;47275;-59
2022/05/18 05:08:52;;;;;;;13.77;5.03;;;22.30;47.50;;;;;;5046028;28;46371;-61
2022/05/18 05:11:18;;;;;;;6.80;4.43;;;23.10;44.90;;;;;;5050833;28;46315;-62
2022/05/18 05:13:44;;;;;;;7.07;4.70;;;23.80;43.00;;;;;;5046708;28;46347;-62
2022/05/18 05:16:11;;;;;;;8.87;5.30;;;24.50;40.70;;;;;;5051584;28;46389;-62
2022/05/18 05:18:38;;;;;;;8.60;5.60;;;24.90;38.50;;;;;;5053479;28;46610;-62
2022/05/18 05:21:05;;;;;;;10.83;4.63;;;25.40;36.50;;;;;;5056806;28;46405;-61
2022/05/18 05:23:31;;;;;;;6.70;5.10;;;25.90;35.00;;;;;;5051286;28;46370;-62
2022/05/18 05:25:59;;;;;;;8.07;4.87;;;26.40;33.40;;;;;;5053216;28;46370;-60
2022/05/18 05:28:25;;;;;;;7.67;4.90;;;26.90;31.60;;;;;;5049633;28;46476;-62
2022/05/18 05:30:51;;;;;;;6.30;5.27;;;27.30;29.90;;;;;;5052828;28;46483;-59
2022/05/18 05:33:17;;;;;;;7.53;4.67;;;27.80;28.40;;;;;;5053030;28;46394;-61
2022/05/18 05:35:43;;;;;;;9.50;5.87;;;28.20;27.70;;;;;;5049068;28;46412;-62
2022/05/18 05:38:10;;;;;;;9.10;5.07;;;28.40;26.80;;;;;;5053947;28;46219;-60
2022/05/18 05:40:36;;;;;;;8.53;5.07;;;28.60;25.90;;;;;;5047544;28;46452;-61
2022/05/18 05:43:10;;;;;;;10.10;4.90;;;28.70;25.10;;;;;;5050811;28;46588;-60
2022/05/18 05:45:36;;;;;;;6.97;4.90;;;28.60;25.00;;;;;;5050896;28;46831;-59
2022/05/18 05:48:07;;;;;;;6.27;4.57;;;28.50;25.50;;;;;;5047724;28;46529;-60
2022/05/18 05:50:33;;;;;;;5.80;4.57;;;28.50;25.20;;;;;;5050454;28;45815;-60
2022/05/18 05:52:59;;;;;;;6.90;4.40;;;28.70;25.20;;;;;;5048729;28;46632;-60
2022/05/18 05:55:26;;;;;;;7.77;4.87;;;28.80;24.90;;;;;;5044355;28;47085;-61
2022/05/18 05:57:55;;;;;;;7.83;4.80;;;28.70;25.90;;;;;;5050989;28;46385;-59
2022/05/18 06:00:23;;;;;;;5.90;4.10;;;28.90;24.20;;;;;;5046596;28;46403;-59
2022/05/18 06:02:50;;;;;;;11.03;5.23;;;29.20;23.80;;;;;;5051232;28;46687;-59
2022/05/18 06:05:19;;;;;;;6.53;4.60;;;29.20;23.60;;;;;;5045319;28;46441;-60
2022/05/18 06:07:45;;;;;;;7.17;5.03;;;29.40;22.80;;;;;;5047700;28;46437;-59
2022/05/18 06:10:11;;;;;;;8.03;4.70;;;29.50;22.50;;;;;;5048932;28;45808;-61
2022/05/18 06:12:38;;;;;;;6.90;4.10;;;29.60;22.30;;;;;;5043406;28;46378;-60
2022/05/18 06:15:06;;;;;;;9.00;5.20;;;28.10;25.30;;;;;;5051375;28;46522;-60
2022/05/18 06:17:31;;;;;;;7.80;4.87;;;26.70;28.20;;;;;;5046332;28;46306;-60
2022/05/18 06:19:57;;;;;;;5.43;4.40;;;25.70;31.10;;;;;;5046114;28;46429;-60
2022/05/18 06:22:22;;;;;;;7.00;5.10;;;24.80;33.70;;;;;;5052998;28;46447;-60
2022/05/18 06:24:51;;;;;;;9.33;5.20;;;24.00;36.10;;;;;;5054577;28;46456;-62
2022/05/18 06:27:17;;;;;;;7.33;5.47;;;23.50;37.30;;;;;;5049981;28;45744;-62
2022/05/18 06:29:43;;;;;;;9.37;5.00;;;23.20;37.00;;;;;;5046407;28;46646;-62
2022/05/18 06:32:08;;;;;;;7.90;5.03;;;23.00;36.80;;;;;;5054200;28;46485;-61
2022/05/18 06:34:35;;;;;;;7.77;5.70;;;22.80;36.90;;;;;;5055342;28;47073;-61
2022/05/18 06:37:03;;;;;;;9.23;4.97;;;22.60;37.70;;;;;;5058340;28;46510;-63
2022/05/18 06:39:29;;;;;;;10.50;5.40;;;22.40;38.60;;;;;;5050382;28;46449;-62
2022/05/18 06:41:54;;;;;;;11.33;6.60;;;22.40;38.10;;;;;;5049583;28;46813;-62
2022/05/18 06:44:20;;;;;;;13.43;6.47;;;22.30;38.80;;;;;;5056597;28;46412;-63
2022/05/18 06:46:47;;;;;;;7.90;5.50;;;21.90;40.10;;;;;;5047336;28;46366;-62
2022/05/18 06:49:13;;;;;;;10.70;6.07;;;22.00;39.90;;;;;;5055382;28;46851;-60
2022/05/18 06:51:41;;;;;;;12.87;6.47;;;22.00;39.70;;;;;;5054295;28;46355;-61
2022/05/18 06:54:07;;;;;;;11.63;5.60;;;21.90;39.80;;;;;;5056168;28;47519;-60
2022/05/18 06:56:36;;;;;;;11.67;6.33;;;22.10;38.90;;;;;;5055221;28;46362;-60
2022/05/18 06:59:03;;;;;;;9.33;6.40;;;22.30;37.80;;;;;;5049591;28;46295;-60
2022/05/18 07:01:29;;;;;;;12.43;6.37;;;22.30;37.60;;;;;;5055440;28;46584;-62
2022/05/18 07:03:55;;;;;;;11.67;6.33;;;22.60;36.40;;;;;;5049422;28;47492;-61
2022/05/18 07:06:22;;;;;;;8.93;5.77;;;22.40;36.50;;;;;;5052390;28;46416;-60
2022/05/18 07:08:51;;;;;;;8.43;6.03;;;22.10;37.40;;;;;;5052634;28;46701;-59
2022/05/18 07:11:18;;;;;;;10.80;6.30;;;22.10;37.20;;;;;;5052373;28;46740;-60
2022/05/18 07:13:46;;;;;;;11.00;6.53;;;22.00;37.30;;;;;;5052542;28;46232;-60
2022/05/18 07:16:11;;;;;;;8.90;6.27;;;21.90;37.60;;;;;;5051170;28;45704;-60
2022/05/18 07:18:37;;;;;;;8.57;6.17;;;21.50;38.80;;;;;;5051760;28;46525;-60
2022/05/18 07:21:05;;;;;;;10.07;7.17;;;21.30;39.80;;;;;;5050827;28;46515;-60
2022/05/18 07:23:31;;;;;;;11.07;7.00;;;21.40;40.20;;;;;;5052149;28;47371;-61
2022/05/18 07:25:58;;;;;;;8.97;6.87;;;21.50;40.20;;;;;;5050848;28;45764;-61
2022/05/18 07:28:24;;;;;;;10.00;6.60;;;21.70;40.00;;;;;;5049962;28;46380;-60
2022/05/18 07:30:51;;;;;;;11.67;7.70;;;22.10;39.60;;;;;;5048021;28;46338;-60
2022/05/18 07:33:20;;;;;;;15.67;7.20;;;22.20;39.20;;;;;;5051007;28;46384;-60
2022/05/18 07:35:46;;;;;;;12.90;6.47;;;22.00;39.40;;;;;;5047912;28;46368;-61
2022/05/18 07:38:13;;;;;;;10.50;7.20;;;22.00;39.60;;;;;;5061304;28;46773;-60
2022/05/18 07:40:39;;;;;;;11.60;7.03;;;22.20;39.40;;;;;;5058681;28;46251;-61
2022/05/18 07:43:04;;;;;;;8.83;5.90;;;22.30;39.20;;;;;;5051663;27;46480;-61
2022/05/18 07:45:30;;;;;;;10.30;6.10;;;22.50;39.40;;;;;;5050574;28;46383;-61
2022/05/18 07:47:56;;;;;;;10.47;6.73;;;22.80;39.00;;;;;;5053179;28;46385;-60
2022/05/18 07:50:24;;;;;;;7.73;6.13;;;23.00;38.40;;;;;;5054465;28;46867;-60
2022/05/18 07:52:52;;;;;;;8.67;5.60;;;23.00;38.10;;;;;;5052141;28;46484;-60
2022/05/18 07:55:18;;;;;;;10.20;5.70;;;23.10;37.70;;;;;;5049561;28;46611;-60
2022/05/18 07:57:44;;;;;;;11.03;5.30;;;23.20;37.80;;;;;;5050426;28;45949;-59
2022/05/18 08:00:12;;;;;;;7.73;5.50;;;23.10;38.30;;;;;;5055116;28;47002;-60
2022/05/18 08:02:38;;;;;;;11.73;5.33;;;23.10;38.40;;;;;;5050013;28;47441;-60
2022/05/18 08:05:05;;;;;;;12.00;5.30;;;23.10;38.00;;;;;;5051436;28;46379;-61
2022/05/18 08:07:31;;;;;;;10.67;5.10;;;22.90;38.00;;;;;;5050879;28;46439;-61
2022/05/18 08:15:26;;;;;;;6.00;4.57;;;23.50;37.20;;;;;;5048252;28;46540;-61
2022/05/18 08:17:51;;;;;;;9.70;4.60;;;23.50;36.00;;;;;;5050610;28;45850;-60
2022/05/18 08:20:21;;;;;;;5.57;4.10;;;23.50;35.30;;;;;;5052557;28;46420;-62
2022/05/18 08:22:47;;;;;;;8.63;4.80;;;23.70;35.00;;;;;;5046845;28;46357;-61
2022/05/18 08:25:13;;;;;;;6.63;3.90;;;23.90;33.80;;;;;;5051660;28;46432;-60
2022/05/18 08:27:42;;;;;;;6.63;4.27;;;23.80;33.80;;;;;;5048246;28;46224;-60
2022/05/18 08:30:10;;;;;;;8.67;4.33;;;23.70;32.80;;;;;;5048679;28;46525;-62
2022/05/18 08:32:36;;;;;;;6.67;4.70;;;23.70;32.60;;;;;;5054126;28;47949;-61
2022/05/18 08:35:03;;;;;;;6.90;3.63;;;23.80;32.50;;;;;;5044710;28;46476;-61
2022/05/18 08:37:28;;;;;;;9.93;3.67;;;23.80;32.20;;;;;;5056530;28;45989;-61
2022/05/18 08:39:54;;;;;;;8.10;3.57;;;23.90;31.60;;;;;;5048747;28;46429;-60
2022/05/18 08:42:22;;;;;;;6.40;4.07;;;24.10;31.20;;;;;;5050347;28;46405;-61
2022/05/18 08:44:50;;;;;;;7.07;4.03;;;24.20;31.40;;;;;;5055046;28;46413;-61
2022/05/18 08:47:32;;;;;;;8.20;3.90;;;24.30;30.80;;;;;;5054632;28;46270;-61
2022/05/18 08:50:00;;;;;;;12.83;3.97;;;24.20;30.60;;;;;;5051756;28;46949;-61
2022/05/18 08:52:50;;;;;;;6.50;3.40;;;24.30;30.50;;;;;;5058918;28;46393;-61
2022/05/18 08:55:22;;;;;;;8.03;3.93;;;24.30;30.20;;;;;;5047998;28;46279;-61
2022/05/18 08:57:49;;;;;;;7.70;3.27;;;24.30;30.40;;;;;;5055843;28;46834;-60
2022/05/18 09:00:20;;;;;;;7.53;3.50;;;24.40;31.10;;;;;;5051911;28;46365;-61
2022/05/18 09:02:49;;;;;;;10.13;4.10;;;24.40;29.60;;;;;;5053149;28;46283;-61
2022/05/18 09:05:29;;;;;;;4.43;3.40;;;24.40;29.40;;;;;;5055863;28;46455;-60
2022/05/18 09:08:14;;;;;;;8.70;3.87;;;24.50;28.60;;;;;;5052360;28;46353;-59
2022/05/18 09:10:52;;;;;;;6.77;4.03;;;24.40;28.40;;;;;;5050225;28;45870;-60
2022/05/18 09:13:19;;;;;;;8.33;4.00;;;24.30;28.80;;;;;;5055118;28;46455;-61
2022/05/18 09:16:07;;;;;;;5.43;3.60;;;24.40;29.10;;;;;;5052531;28;45853;-60
2022/05/18 09:18:39;;;;;;;7.47;3.97;;;24.60;29.00;;;;;;5057391;28;45802;-60
2022/05/18 09:21:32;;;;;;;9.50;4.30;;;24.60;29.10;;;;;;5057343;28;46514;-60
2022/05/18 09:24:20;;;;;;;7.30;4.00;;;24.80;30.00;;;;;;5055845;28;46364;-60
2022/05/18 09:27:12;;;;;;;8.87;4.27;;;25.10;29.00;;;;;;5049345;28;46378;-60
2022/05/18 09:29:59;;;;;;;7.40;4.13;;;25.10;28.50;;;;;;5051765;28;46318;-61
2022/05/18 09:32:59;;;;;;;11.00;4.77;;;24.70;28.70;;;;;;5048051;28;46638;-60
2022/05/18 09:35:42;;;;;;;5.50;3.27;;;24.70;28.60;;;;;;5053183;28;47123;-62
2022/05/18 09:38:24;;;;;;;14.10;3.67;;;24.70;28.90;;;;;;5050830;28;46537;-60
2022/05/18 09:40:51;;;;;;;5.80;3.80;;;24.70;28.90;;;;;;5051590;28;46329;-62
2022/05/18 09:43:38;;;;;;;7.50;3.93;;;24.80;28.70;;;;;;5050803;28;45829;-62
2022/05/18 09:46:07;;;;;;;6.67;3.70;;;24.90;28.50;;;;;;5051579;28;46294;-61
2022/05/18 09:49:09;;;;;;;7.50;3.43;;;24.80;27.90;;;;;;5050056;28;46512;-62
2022/05/18 09:51:36;;;;;;;6.10;3.53;;;24.90;27.30;;;;;;5048400;28;46404;-60
2022/05/18 09:54:03;;;;;;;6.07;3.27;;;25.00;27.10;;;;;;5057519;28;46794;-60
2022/05/18 09:56:35;;;;;;;7.40;3.27;;;24.70;27.20;;;;;;5049959;28;46488;-61
2022/05/18 09:59:08;;;;;;;7.33;4.00;;;24.80;27.70;;;;;;5048272;28;46674;-62
2022/05/18 10:10:14;;;;;;;8.83;3.57;;;25.00;26.00;;;;;;5041841;28;45852;-60
2022/05/18 10:12:46;;;;;;;7.10;3.00;;;24.70;26.30;;;;;;5047648;28;46323;-60
2022/05/18 10:15:24;;;;;;;4.50;2.80;;;24.70;26.40;;;;;;5049065;28;46748;-60
2022/05/18 10:17:55;;;;;;;8.50;3.00;;;24.60;26.40;;;;;;5052598;28;46413;-60
2022/05/18 10:20:30;;;;;;;8.97;3.40;;;24.70;25.70;;;;;;5048951;28;46337;-60
2022/05/18 10:22:57;;;;;;;6.57;3.70;;;24.80;25.80;;;;;;5056668;28;45738;-61
2022/05/18 10:26:03;;;;;;;6.90;3.50;;;24.80;25.80;;;;;;5051551;28;46430;-60
2022/05/18 10:28:32;;;;;;;6.17;3.40;;;24.90;25.90;;;;;;5049657;28;47184;-61
2022/05/18 10:31:02;;;;;;;7.37;3.37;;;24.80;25.80;;;;;;5049080;28;46354;-61
2022/05/18 10:33:39;;;;;;;9.83;4.00;;;24.80;25.60;;;;;;5050754;28;46332;-60
2022/05/18 10:36:15;;;;;;;8.00;3.20;;;24.80;25.00;;;;;;5048212;28;46628;-61
2022/05/18 10:38:52;;;;;;;6.77;4.03;;;24.80;24.90;;;;;;5048043;28;46316;-60
2022/05/18 10:41:24;;;;;;;9.13;3.50;;;24.80;24.80;;;;;;5051434;28;46345;-60
2022/05/18 10:44:33;;;;;;;8.07;3.80;;;24.80;25.00;;;;;;5048367;28;46618;-60
2022/05/18 10:47:14;;;;;;;6.43;3.70;;;24.80;26.80;;;;;;5036636;28;46383;-60
2022/05/18 10:49:41;;;;;;;8.60;3.80;;;24.80;25.90;;;;;;5044267;28;46491;-61
2022/05/18 10:52:30;;;;;;;8.20;4.20;;;24.90;25.90;;;;;;5050892;28;46421;-60
2022/05/18 10:55:04;;;;;;;8.50;4.27;;;25.00;25.40;;;;;;5048530;28;45819;-60
2022/05/18 10:57:33;;;;;;;12.43;3.63;;;25.10;25.30;;;;;;5048497;28;46364;-60
2022/05/18 11:00:20;;;;;;;7.70;3.87;;;25.10;25.30;;;;;;5048408;28;47238;-60
2022/05/18 11:03:08;;;;;;;15.30;4.50;;;25.20;24.10;;;;;;5042514;28;46526;-61
2022/05/18 11:05:48;;;;;;;7.13;3.50;;;25.10;24.20;;;;;;5050755;28;46319;-59
2022/05/18 11:08:17;;;;;;;5.83;2.80;;;25.10;24.40;;;;;;5050661;28;46403;-61
2022/05/18 11:10:56;;;;;;;4.90;2.60;;;25.10;24.50;;;;;;5049949;28;47099;-61
2022/05/18 11:13:30;;;;;;;3.90;2.80;;;25.20;23.90;;;;;;5049398;28;46381;-61
2022/05/18 11:16:01;;;;;;;6.00;3.03;;;25.30;23.40;;;;;;5047354;28;46207;-61
2022/05/18 11:18:55;;;;;;;6.03;3.27;;;25.20;22.90;;;;;;5048874;28;46493;-61
2022/05/18 11:21:33;;;;;;;5.50;3.10;;;25.10;23.50;;;;;;5039752;28;47034;-61
2022/05/18 11:24:34;;;;;;;6.83;3.20;;;25.30;23.70;;;;;;5054139;28;46354;-61
2022/05/18 11:27:20;;;;;;;11.80;3.33;;;25.40;23.80;;;;;;5057317;28;46757;-61
2022/05/18 11:30:04;;;;;;;4.70;2.93;;;25.40;23.40;;;;;;5049965;28;46472;-60
2022/05/18 11:32:39;;;;;;;8.63;3.50;;;25.40;23.10;;;;;;5049663;28;46291;-61
2022/05/18 11:35:16;;;;;;;6.83;3.20;;;25.30;23.50;;;;;;5057953;28;46314;-61
2022/05/18 11:38:11;;;;;;;5.33;3.00;;;25.40;23.30;;;;;;5049355;28;45930;-61
2022/05/18 11:41:11;;;;;;;6.90;3.10;;;25.20;23.20;;;;;;5055531;28;46754;-60
2022/05/18 11:43:57;;;;;;;7.03;3.00;;;25.10;22.80;;;;;;5048834;28;47155;-61
2022/05/18 11:46:44;;;;;;;5.83;2.60;;;25.00;23.00;;;;;;5052852;28;46483;-62
2022/05/18 11:49:45;;;;;;;5.20;2.90;;;25.10;22.80;;;;;;5047163;28;46976;-62
2022/05/18 11:52:36;;;;;;;7.63;2.70;;;25.00;22.60;;;;;;5054206;28;45786;-62
2022/05/18 11:55:17;;;;;;;9.43;2.90;;;25.10;22.90;;;;;;5045239;28;46211;-64
2022/05/18 11:57:57;;;;;;;7.70;2.60;;;25.20;22.60;;;;;;5055066;28;46717;-63
2022/05/18 12:03:30;;;;;;;9.53;2.30;;;25.00;22.10;;;;;;5053456;28;46341;-60
2022/05/18 12:06:22;;;;;;;6.33;2.00;;;25.10;22.10;;;;;;5051060;28;46398;-60
2022/05/18 12:09:12;;;;;;;8.40;1.80;;;25.10;22.00;;;;;;5053956;28;46477;-63
2022/05/18 12:11:59;;;;;;;8.60;2.30;;;25.20;21.90;;;;;;5049915;28;46686;-62
2022/05/18 12:14:52;;;;;;;6.27;2.40;;;25.20;21.50;;;;;;5053029;28;46442;-61
2022/05/18 12:17:30;;;;;;;7.27;2.60;;;25.00;21.40;;;;;;5047835;28;46662;-60
2022/05/18 12:20:07;;;;;;;4.97;2.50;;;25.10;21.80;;;;;;5052850;28;46461;-60
2022/05/18 12:22:40;;;;;;;6.80;2.30;;;25.30;21.90;;;;;;5051498;28;46445;-61
2022/05/18 12:25:08;;;;;;;4.87;2.50;;;25.20;22.50;;;;;;5051569;28;46419;-61
2022/05/18 12:27:34;;;;;;;12.17;2.30;;;25.20;22.40;;;;;;5047705;28;46361;-61
2022/05/18 12:30:05;;;;;;;5.63;3.00;;;25.20;21.70;;;;;;5050340;28;46310;-61
2022/05/18 12:32:31;;;;;;;4.97;2.43;;;25.30;22.10;;;;;;5049672;28;46416;-62
2022/05/18 12:35:14;;;;;;;3.70;2.10;;;25.30;21.60;;;;;;5048826;28;46425;-62
2022/05/18 12:38:07;;;;;;;6.17;2.73;;;25.20;21.60;;;;;;5050539;28;46409;-62
2022/05/18 12:40:36;;;;;;;5.90;2.70;;;25.30;21.80;;;;;;5046131;28;46658;-61
2022/05/18 12:43:24;;;;;;;5.17;2.40;;;25.40;21.90;;;;;;5049974;28;46750;-62
2022/05/18 12:45:56;;;;;;;6.23;2.80;;;25.50;22.00;;;;;;5054689;28;46414;-61
2022/05/18 12:48:43;;;;;;;6.27;3.00;;;25.60;22.10;;;;;;5048329;28;46727;-61
2022/05/18 12:51:27;;;;;;;7.03;2.47;;;25.70;22.20;;;;;;5057648;28;46437;-61
2022/05/18 12:53:52;;;;;;;4.00;2.50;;;25.60;21.90;;;;;;5049280;28;45859;-62
2022/05/18 12:56:26;;;;;;;6.00;2.50;;;25.60;21.90;;;;;;5054586;28;46652;-62
2022/05/18 12:58:57;;;;;;;5.90;3.00;;;25.40;22.20;;;;;;5051616;28;47153;-62
2022/05/18 13:01:26;;;;;;;3.93;2.37;;;25.40;22.60;;;;;;5049836;28;46604;-63
2022/05/18 13:03:59;;;;;;;6.47;2.30;;;25.30;21.90;;;;;;5053558;28;46406;-61
2022/05/18 13:06:50;;;;;;;5.90;2.40;;;25.30;22.10;;;;;;5048658;28;45875;-61
2022/05/18 13:09:25;;;;;;;4.77;2.20;;;25.40;22.60;;;;;;5053437;28;46395;-61
2022/05/18 13:12:36;;;;;;;5.20;2.50;;;25.60;22.30;;;;;;5049111;28;45924;-61
2022/05/18 13:15:21;;;;;;;3.93;2.20;;;25.50;22.10;;;;;;5053150;28;46501;-62
2022/05/18 13:17:56;;;;;;;5.87;2.10;;;25.60;22.10;;;;;;5047380;28;46677;-61
2022/05/18 13:20:22;;;;;;;5.40;2.37;;;25.60;21.70;;;;;;5047679;28;47506;-62
2022/05/18 13:23:27;;;;;;;4.00;2.17;;;25.50;21.60;;;;;;5049665;28;46680;-62